createdAt,value
2019-03-04T00:00:24.501Z,2.80
2019-03-04T00:02:57.601Z,2.80
2019-03-04T00:05:30.501Z,2.90
2019-03-04T00:08:03.430Z,2.80
2019-03-04T00:10:36.466Z,2.90
2019-03-04T00:13:09.694Z,2.90
2019-03-04T00:15:43.047Z,3.00
2019-03-04T00:18:16.241Z,3.00
2019-03-04T00:20:49.217Z,3.10
2019-03-04T00:23:22.548Z,3.10
2019-03-04T00:25:55.642Z,3.10
2019-03-04T00:28:28.916Z,3.00
2019-03-04T00:31:02.033Z,3.00
2019-03-04T00:33:35.068Z,3.00
2019-03-04T00:36:08.389Z,3.00
2019-03-04T00:38:41.122Z,3.00
2019-03-04T00:41:14.174Z,2.90
2019-03-04T00:43:47.218Z,2.90
2019-03-04T00:46:20.255Z,2.90
2019-03-04T00:48:53.220Z,2.80
2019-03-04T00:51:26.581Z,2.80
2019-03-04T00:54:00.044Z,2.80
2019-03-04T00:56:33.330Z,2.80
2019-03-04T00:59:06.651Z,2.80
2019-03-04T01:01:40.111Z,2.80
2019-03-04T01:04:13.086Z,2.80
2019-03-04T01:06:46.016Z,2.70
2019-03-04T01:09:19.256Z,2.70
2019-03-04T01:11:52.316Z,2.60
2019-03-04T01:14:25.221Z,2.50
2019-03-04T01:16:58.314Z,2.50
2019-03-04T01:19:31.428Z,2.40
2019-03-04T01:22:04.786Z,2.30
2019-03-04T01:24:37.594Z,2.20
2019-03-04T01:27:10.751Z,2.10
2019-03-04T01:29:43.651Z,2.10
2019-03-04T01:32:16.709Z,2.00
2019-03-04T01:34:49.763Z,2.00
2019-03-04T01:37:22.651Z,2.00
2019-03-04T01:39:56.736Z,1.90
2019-03-04T01:42:29.741Z,1.90
2019-03-04T01:45:02.898Z,1.90
2019-03-04T01:47:36.015Z,1.90
2019-03-04T01:50:11.034Z,2.00
2019-03-04T01:52:44.234Z,2.00
2019-03-04T01:55:18.903Z,2.00
2019-03-04T01:57:51.822Z,2.10
2019-03-04T02:00:25.177Z,2.10
2019-03-04T02:02:58.370Z,2.10
2019-03-04T02:05:31.471Z,2.10
2019-03-04T02:08:04.510Z,2.10
2019-03-04T02:10:37.542Z,2.10
2019-03-04T02:13:10.416Z,2.10
2019-03-04T02:15:43.454Z,2.10
2019-03-04T02:18:16.438Z,2.10
2019-03-04T02:20:50.081Z,2.10
2019-03-04T02:23:23.066Z,2.10
2019-03-04T02:26:33.931Z,2.10
2019-03-04T02:29:06.988Z,2.20
2019-03-04T02:31:39.878Z,2.20
2019-03-04T02:34:13.090Z,2.30
2019-03-04T02:36:46.340Z,2.30
2019-03-04T02:39:19.399Z,2.40
2019-03-04T02:41:52.720Z,2.40
2019-03-04T02:44:26.191Z,2.40
2019-03-04T02:46:59.042Z,2.40
2019-03-04T02:49:32.243Z,2.60
2019-03-04T02:52:06.082Z,2.70
2019-03-04T02:54:39.291Z,2.70
2019-03-04T02:57:12.608Z,2.80
2019-03-04T02:59:45.426Z,2.80
2019-03-04T03:02:18.803Z,2.80
2019-03-04T03:04:51.999Z,3.00
2019-03-04T03:07:25.160Z,3.00
2019-03-04T03:09:58.046Z,2.90
2019-03-04T03:12:31.069Z,2.90
2019-03-04T03:15:04.008Z,2.80
2019-03-04T03:17:38.578Z,2.70
2019-03-04T03:20:12.452Z,2.50
2019-03-04T03:22:46.260Z,2.30
2019-03-04T03:25:19.183Z,2.10
2019-03-04T03:27:52.316Z,1.90
2019-03-04T03:30:25.701Z,1.70
2019-03-04T03:32:58.673Z,1.60
2019-03-04T03:35:31.820Z,1.50
2019-03-04T03:38:05.097Z,1.50
2019-03-04T03:40:38.125Z,1.40
2019-03-04T03:43:11.179Z,1.40
2019-03-04T03:45:44.114Z,1.40
2019-03-04T03:48:17.022Z,1.40
2019-03-04T03:50:50.616Z,1.30
2019-03-04T03:53:23.938Z,1.20
2019-03-04T03:55:57.149Z,1.10
2019-03-04T03:58:31.313Z,1.10
2019-03-04T04:01:04.478Z,1.10
2019-03-04T04:03:37.440Z,1.10
2019-03-04T04:06:10.593Z,1.20
2019-03-04T04:08:43.656Z,1.10
2019-03-04T04:11:17.190Z,1.00
2019-03-04T04:13:50.245Z,1.00
2019-03-04T04:16:23.399Z,0.90
2019-03-04T04:18:56.322Z,0.90
2019-03-04T04:21:30.412Z,0.90
2019-03-04T04:24:04.238Z,0.80
2019-03-04T04:26:37.257Z,0.90
2019-03-04T04:29:14.575Z,0.80
2019-03-04T04:31:47.538Z,0.80
2019-03-04T04:34:20.591Z,0.80
2019-03-04T04:36:53.710Z,0.80
2019-03-04T04:39:26.855Z,0.70
2019-03-04T04:42:00.073Z,0.70
2019-03-04T04:44:33.246Z,0.60
2019-03-04T04:47:10.626Z,0.60
2019-03-04T04:49:43.591Z,0.60
2019-03-04T04:52:16.523Z,0.50
2019-03-04T04:54:49.701Z,0.40
2019-03-04T04:57:22.879Z,0.40
2019-03-04T04:59:55.943Z,0.40
2019-03-04T05:02:29.187Z,0.40
2019-03-04T05:05:02.501Z,0.40
2019-03-04T05:07:35.674Z,0.40
2019-03-04T05:10:13.339Z,0.40
2019-03-04T05:12:46.887Z,0.40
2019-03-04T05:15:20.279Z,0.40
2019-03-04T05:17:53.873Z,0.50
2019-03-04T05:20:27.155Z,0.60
2019-03-04T05:23:00.397Z,0.60
2019-03-04T05:25:33.682Z,0.70
2019-03-04T05:28:07.050Z,0.70
2019-03-04T05:30:40.175Z,0.90
2019-03-04T05:33:13.159Z,1.00
2019-03-04T05:35:47.472Z,1.20
2019-03-04T05:38:20.607Z,1.30
2019-03-04T05:40:53.570Z,1.40
2019-03-04T05:43:26.681Z,1.60
2019-03-04T05:45:59.940Z,1.90
2019-03-04T05:48:33.369Z,2.10
2019-03-04T05:51:06.737Z,2.20
2019-03-04T05:53:40.080Z,2.50
2019-03-04T05:56:13.922Z,2.70
2019-03-04T05:58:46.850Z,2.90
2019-03-04T06:01:34.738Z,3.10
2019-03-04T06:04:13.492Z,3.20
2019-03-04T06:06:53.745Z,3.20
2019-03-04T06:09:27.029Z,3.50
2019-03-04T06:12:00.207Z,3.80
2019-03-04T06:14:33.663Z,4.10
2019-03-04T06:17:07.277Z,4.40
2019-03-04T06:19:40.394Z,4.60
2019-03-04T06:22:13.394Z,4.80
2019-03-04T06:24:46.423Z,5.10
2019-03-04T06:27:19.901Z,5.30
2019-03-04T06:29:53.087Z,5.50
2019-03-04T06:32:25.978Z,5.60
2019-03-04T06:34:58.975Z,5.80
2019-03-04T06:37:32.115Z,5.90
2019-03-04T06:40:05.832Z,6.20
2019-03-04T06:42:39.026Z,6.40
2019-03-04T06:45:14.831Z,6.60
2019-03-04T06:47:47.574Z,6.80
2019-03-04T06:50:52.423Z,7.00
2019-03-04T06:54:09.734Z,7.20
2019-03-04T06:57:06.264Z,7.30
2019-03-04T07:00:07.804Z,7.50
2019-03-04T07:02:42.222Z,7.60
2019-03-04T07:05:52.513Z,8.00
2019-03-04T07:09:17.048Z,8.30
2019-03-04T07:11:51.662Z,8.50
2019-03-04T07:14:25.406Z,8.90
2019-03-04T07:16:58.731Z,9.10
2019-03-04T07:19:34.816Z,9.30
2019-03-04T07:22:08.089Z,9.50
2019-03-04T07:24:40.859Z,9.80
2019-03-04T07:27:15.475Z,10.10
2019-03-04T07:29:49.227Z,10.30
2019-03-04T07:32:22.413Z,10.60
2019-03-04T07:34:55.536Z,10.80
2019-03-04T07:37:28.810Z,10.70
2019-03-04T07:40:03.662Z,10.70
2019-03-04T07:42:36.418Z,10.70
2019-03-04T07:45:10.493Z,10.70
2019-03-04T07:47:46.618Z,10.90
2019-03-04T07:50:19.908Z,11.10
2019-03-04T07:53:00.393Z,11.20
2019-03-04T07:55:33.611Z,11.40
2019-03-04T07:58:09.511Z,11.50
2019-03-04T08:00:44.189Z,11.50
2019-03-04T08:03:18.272Z,11.50
2019-03-04T08:05:51.585Z,11.50
2019-03-04T08:08:27.336Z,11.60
2019-03-04T08:11:59.894Z,11.90
2019-03-04T08:14:33.520Z,12.00
2019-03-04T08:17:06.590Z,12.20
2019-03-04T08:19:39.791Z,12.40
2019-03-04T08:22:14.143Z,12.60
2019-03-04T08:24:47.937Z,13.00
2019-03-04T08:27:21.142Z,13.30
2019-03-04T08:29:58.137Z,13.40
2019-03-04T08:32:31.468Z,13.40
2019-03-04T08:35:04.964Z,13.20
2019-03-04T08:37:38.496Z,13.30
2019-03-04T08:40:13.206Z,13.40
2019-03-04T08:42:46.433Z,13.60
2019-03-04T08:45:21.667Z,13.70
2019-03-04T08:47:54.391Z,13.60
2019-03-04T08:50:27.475Z,13.50
2019-03-04T08:53:01.072Z,13.70
2019-03-04T08:55:34.240Z,13.70
2019-03-04T08:58:07.385Z,13.80
2019-03-04T09:00:40.870Z,14.10
2019-03-04T09:03:14.338Z,14.40
2019-03-04T09:05:47.701Z,14.90
2019-03-04T09:08:20.492Z,15.20
2019-03-04T09:10:53.933Z,15.40
2019-03-04T09:13:27.401Z,15.60
2019-03-04T09:16:03.974Z,15.90
2019-03-04T09:18:37.279Z,15.90
2019-03-04T09:21:10.790Z,16.10
2019-03-04T09:23:43.931Z,16.10
2019-03-04T09:26:17.136Z,16.20
2019-03-04T09:28:50.864Z,16.10
2019-03-04T09:31:25.408Z,16.00
2019-03-04T09:33:58.470Z,15.90
2019-03-04T09:36:32.045Z,15.90
2019-03-04T09:39:06.648Z,15.80
2019-03-04T09:41:39.625Z,15.90
2019-03-04T09:44:12.957Z,15.90
2019-03-04T09:46:45.925Z,15.70
2019-03-04T09:49:19.105Z,15.40
2019-03-04T09:51:52.242Z,15.20
2019-03-04T09:54:25.360Z,15.30
2019-03-04T09:56:59.984Z,15.50
2019-03-04T09:59:33.352Z,15.50
2019-03-04T10:02:17.595Z,15.40
2019-03-04T10:05:37.209Z,15.30
2019-03-04T10:08:40.882Z,15.10
2019-03-04T10:11:54.099Z,15.10
2019-03-04T10:15:09.076Z,15.20
2019-03-04T10:18:54.089Z,15.20
2019-03-04T10:22:14.190Z,15.20
2019-03-04T10:25:26.987Z,15.20
2019-03-04T10:28:51.124Z,15.30
2019-03-04T10:32:24.984Z,15.40
2019-03-04T10:35:34.033Z,15.60
2019-03-04T10:38:46.499Z,15.60
2019-03-04T10:42:17.688Z,15.60
2019-03-04T10:45:51.908Z,15.60
2019-03-04T10:48:24.980Z,15.70
2019-03-04T10:50:58.354Z,15.80
2019-03-04T10:53:31.456Z,15.70
2019-03-04T10:56:04.699Z,15.70
2019-03-04T10:58:37.793Z,15.70
2019-03-04T11:01:11.116Z,15.70
2019-03-04T11:03:44.307Z,15.90
2019-03-04T11:06:18.141Z,16.00
2019-03-04T11:08:52.711Z,16.00
2019-03-04T11:11:29.848Z,16.00
2019-03-04T11:14:01.418Z,16.00
2019-03-04T11:16:36.969Z,16.00
2019-03-04T11:19:10.328Z,15.80
2019-03-04T11:21:43.695Z,15.60
2019-03-04T11:24:17.513Z,15.60
2019-03-04T11:26:51.015Z,15.50
2019-03-04T11:29:24.916Z,15.40
2019-03-04T11:31:58.054Z,15.40
2019-03-04T11:34:31.240Z,15.50
2019-03-04T11:37:05.001Z,15.60
2019-03-04T11:39:57.662Z,15.70
2019-03-04T11:42:30.976Z,15.80
2019-03-04T11:45:07.646Z,15.80
2019-03-04T11:47:40.765Z,15.80
2019-03-04T11:50:16.117Z,15.80
2019-03-04T11:52:49.591Z,15.60
2019-03-04T11:55:24.552Z,15.40
2019-03-04T11:57:57.922Z,15.40
2019-03-04T12:00:41.420Z,15.50
2019-03-04T12:03:15.029Z,15.60
2019-03-04T12:05:48.618Z,15.80
2019-03-04T12:08:22.857Z,15.90
2019-03-04T12:10:56.566Z,16.00
2019-03-04T12:13:30.170Z,16.00
2019-03-04T12:16:04.235Z,16.00
2019-03-04T12:18:38.313Z,16.10
2019-03-04T12:21:11.790Z,16.20
2019-03-04T12:23:45.530Z,16.00
2019-03-04T12:26:19.492Z,15.90
2019-03-04T12:28:52.940Z,15.80
2019-03-04T12:31:30.362Z,15.90
2019-03-04T12:34:07.915Z,15.90
2019-03-04T12:36:41.426Z,16.00
2019-03-04T12:39:15.217Z,16.10
2019-03-04T12:41:49.803Z,16.20
2019-03-04T12:44:23.555Z,16.20
2019-03-04T12:46:56.876Z,16.30
2019-03-04T12:49:31.717Z,16.40
2019-03-04T12:52:06.396Z,16.50
2019-03-04T12:54:39.928Z,16.40
2019-03-04T12:57:13.326Z,16.40
2019-03-04T12:59:47.254Z,16.30
2019-03-04T13:02:20.769Z,16.20
2019-03-04T13:04:54.680Z,16.20
2019-03-04T13:07:28.691Z,16.20
2019-03-04T13:10:02.982Z,16.00
2019-03-04T13:12:36.088Z,16.00
2019-03-04T13:15:14.461Z,15.90
2019-03-04T13:17:47.835Z,16.00
2019-03-04T13:20:21.414Z,16.10
2019-03-04T13:22:54.661Z,16.20
2019-03-04T13:25:29.134Z,16.30
2019-03-04T13:28:08.233Z,16.30
2019-03-04T13:30:38.177Z,16.20
2019-03-04T13:33:12.098Z,16.20
2019-03-04T13:35:46.701Z,16.30
2019-03-04T13:38:20.592Z,16.20
2019-03-04T13:40:54.172Z,16.20
2019-03-04T13:43:27.533Z,16.30
2019-03-04T13:46:00.921Z,16.40
2019-03-04T13:48:34.404Z,16.40
2019-03-04T13:51:08.142Z,16.30
2019-03-04T13:53:42.054Z,16.20
2019-03-04T13:56:15.753Z,16.20
2019-03-04T13:58:52.939Z,16.00
2019-03-04T14:01:28.040Z,15.90
2019-03-04T14:04:01.492Z,15.90
2019-03-04T14:06:35.023Z,15.90
2019-03-04T14:09:09.994Z,16.00
2019-03-04T14:11:43.728Z,15.90
2019-03-04T14:14:17.226Z,16.00
2019-03-04T14:16:50.926Z,16.00
2019-03-04T14:19:24.670Z,16.00
2019-03-04T14:21:58.230Z,16.00
2019-03-04T14:24:31.600Z,16.00
2019-03-04T14:27:05.213Z,16.00
2019-03-04T14:29:38.661Z,15.90
2019-03-04T14:32:12.243Z,16.00
2019-03-04T14:34:45.818Z,16.00
2019-03-04T14:37:19.070Z,15.90
2019-03-04T14:39:53.050Z,15.90
2019-03-04T14:42:26.861Z,15.90
2019-03-04T14:45:00.456Z,15.90
2019-03-04T14:47:33.901Z,16.00
2019-03-04T14:50:10.372Z,15.90
2019-03-04T14:52:43.973Z,15.70
2019-03-04T14:55:19.740Z,15.50
2019-03-04T14:57:53.355Z,15.50
2019-03-04T15:00:39.180Z,15.50
2019-03-04T15:03:20.916Z,15.50
2019-03-04T15:05:48.408Z,15.60
2019-03-04T15:08:21.693Z,15.60
2019-03-04T15:10:55.467Z,15.60
2019-03-04T15:13:29.106Z,15.60
2019-03-04T15:16:04.497Z,15.50
2019-03-04T15:18:37.922Z,15.30
2019-03-04T15:21:11.861Z,15.30
2019-03-04T15:23:45.805Z,15.20
2019-03-04T15:26:19.242Z,15.10
2019-03-04T15:28:53.426Z,15.00
2019-03-04T15:31:27.051Z,15.00
2019-03-04T15:34:00.217Z,14.90
2019-03-04T15:36:33.863Z,14.90
2019-03-04T15:39:22.590Z,14.90
2019-03-04T15:41:50.409Z,14.70
2019-03-04T15:44:23.904Z,14.60
2019-03-04T15:46:57.237Z,14.60
2019-03-04T15:49:30.295Z,14.50
2019-03-04T15:52:03.860Z,14.40
2019-03-04T15:54:37.283Z,14.40
2019-03-04T15:57:11.463Z,14.30
2019-03-04T15:59:44.686Z,14.20
2019-03-04T16:02:18.955Z,14.10
2019-03-04T16:04:52.299Z,14.00
2019-03-04T16:07:26.079Z,13.90
2019-03-04T16:09:59.297Z,13.90
2019-03-04T16:12:33.201Z,13.80
2019-03-04T16:15:08.157Z,13.70
2019-03-04T16:17:41.688Z,13.50
2019-03-04T16:20:16.848Z,13.50
2019-03-04T16:22:51.099Z,13.40
2019-03-04T16:25:25.229Z,13.30
2019-03-04T16:28:21.890Z,13.20
2019-03-04T16:30:55.410Z,13.10
2019-03-04T16:33:29.988Z,13.10
2019-03-04T16:36:03.876Z,13.00
2019-03-04T16:38:38.158Z,12.90
2019-03-04T16:41:11.678Z,12.90
2019-03-04T16:43:44.808Z,12.80
2019-03-04T16:46:18.507Z,12.80
2019-03-04T16:48:52.465Z,12.70
2019-03-04T16:51:26.379Z,12.60
2019-03-04T16:53:59.845Z,12.60
2019-03-04T16:56:34.575Z,12.50
2019-03-04T16:59:07.663Z,12.50
2019-03-04T17:01:41.279Z,12.50
2019-03-04T17:04:14.948Z,12.40
2019-03-04T17:06:50.505Z,12.40
2019-03-04T17:09:24.517Z,12.40
2019-03-04T17:11:58.267Z,12.30
2019-03-04T17:14:34.233Z,12.20
2019-03-04T17:17:14.651Z,12.20
2019-03-04T17:19:48.640Z,12.10
2019-03-04T17:22:22.266Z,12.10
2019-03-04T17:24:56.384Z,11.90
2019-03-04T17:27:30.254Z,11.90
2019-03-04T17:30:04.132Z,12.00
2019-03-04T17:32:38.298Z,12.00
2019-03-04T17:35:13.369Z,12.00
2019-03-04T17:37:47.249Z,12.00
2019-03-04T17:40:22.535Z,11.90
2019-03-04T17:42:56.380Z,11.90
2019-03-04T17:45:33.219Z,11.90
2019-03-04T17:48:07.244Z,11.90
2019-03-04T17:50:41.818Z,11.90
2019-03-04T17:53:23.305Z,11.90
2019-03-04T17:55:58.469Z,11.90
2019-03-04T17:58:48.107Z,11.80
2019-03-04T18:01:22.243Z,11.80
2019-03-04T18:03:58.767Z,11.70
2019-03-04T18:06:32.646Z,11.70
2019-03-04T18:09:09.976Z,11.70
2019-03-04T18:11:45.122Z,11.60
2019-03-04T18:14:19.365Z,11.50
2019-03-04T18:16:53.641Z,11.50
2019-03-04T18:19:27.652Z,11.40
2019-03-04T18:22:02.116Z,11.40
2019-03-04T18:24:39.675Z,11.30
2019-03-04T18:27:36.028Z,11.30
2019-03-04T18:30:59.445Z,11.20
2019-03-04T18:34:22.792Z,11.10
2019-03-04T18:38:04.534Z,10.80
2019-03-04T18:41:22.799Z,10.60
2019-03-04T18:44:53.483Z,10.50
2019-03-04T18:48:18.678Z,10.30
2019-03-04T18:50:52.136Z,10.20
2019-03-04T18:53:25.343Z,10.00
2019-03-04T18:55:58.722Z,10.00
2019-03-04T18:58:31.719Z,9.90
2019-03-04T19:01:04.699Z,10.00
2019-03-04T19:03:38.312Z,10.00
2019-03-04T19:06:12.630Z,10.00
2019-03-04T19:08:45.917Z,10.10
2019-03-04T19:11:19.353Z,10.10
2019-03-04T19:13:53.161Z,10.10
2019-03-04T19:16:26.647Z,10.20
2019-03-04T19:18:59.943Z,10.20
2019-03-04T19:21:32.937Z,10.20
2019-03-04T19:24:06.869Z,10.10
2019-03-04T19:26:40.747Z,10.20
2019-03-04T19:29:14.055Z,10.30
2019-03-04T19:31:47.259Z,10.40
2019-03-04T19:34:20.561Z,10.60
2019-03-04T19:36:54.209Z,10.60
2019-03-04T19:39:28.034Z,10.70
2019-03-04T19:42:01.322Z,10.70
2019-03-04T19:44:34.931Z,10.80
2019-03-04T19:47:08.493Z,10.80
2019-03-04T19:49:41.648Z,10.80
2019-03-04T19:52:15.342Z,10.80
2019-03-04T19:54:49.070Z,10.70
2019-03-04T19:57:23.101Z,10.60
2019-03-04T19:59:59.122Z,10.70
2019-03-04T20:02:32.172Z,10.70
2019-03-04T20:05:06.548Z,10.70
2019-03-04T20:07:39.760Z,10.80
2019-03-04T20:10:16.012Z,10.80
2019-03-04T20:12:49.246Z,10.80
2019-03-04T20:15:24.270Z,10.70
2019-03-04T20:17:57.768Z,10.70
2019-03-04T20:20:31.696Z,10.70
2019-03-04T20:23:05.153Z,10.60
2019-03-04T20:25:38.816Z,10.70
2019-03-04T20:28:12.275Z,10.70
2019-03-04T20:30:45.814Z,10.60
2019-03-04T20:33:18.677Z,10.60
2019-03-04T20:35:52.609Z,10.50
2019-03-04T20:38:32.219Z,10.50
2019-03-04T20:41:05.599Z,10.40
2019-03-04T20:43:39.006Z,10.30
2019-03-04T20:46:11.911Z,10.30
2019-03-04T20:48:44.682Z,10.20
2019-03-04T20:51:17.774Z,10.20
2019-03-04T20:53:52.112Z,10.10
2019-03-04T20:56:25.127Z,10.10
2019-03-04T20:58:58.442Z,10.00
2019-03-04T21:01:31.799Z,10.00
2019-03-04T21:04:06.159Z,10.00
2019-03-04T21:06:39.981Z,10.10
2019-03-04T21:09:14.481Z,10.10
2019-03-04T21:11:47.677Z,10.00
2019-03-04T21:14:21.143Z,10.00
2019-03-04T21:16:55.267Z,10.00
2019-03-04T21:19:28.362Z,10.00
2019-03-04T21:22:01.426Z,10.00
2019-03-04T21:24:34.365Z,10.00
2019-03-04T21:27:07.478Z,9.90
2019-03-04T21:30:30.358Z,9.90
2019-03-04T21:33:34.359Z,9.80
2019-03-04T21:36:26.954Z,9.70
2019-03-04T21:39:01.165Z,9.70
2019-03-04T21:42:09.734Z,9.60
2019-03-04T21:45:24.048Z,9.60
2019-03-04T21:48:25.380Z,9.60
2019-03-04T21:51:48.523Z,9.50
2019-03-04T21:54:21.894Z,9.40
2019-03-04T21:57:23.487Z,9.40
2019-03-04T21:59:57.102Z,9.40
2019-03-04T22:03:18.578Z,9.40
2019-03-04T22:05:51.911Z,9.50
2019-03-04T22:08:25.211Z,9.40
2019-03-04T22:10:59.152Z,9.40
2019-03-04T22:13:32.474Z,9.50
2019-03-04T22:16:05.509Z,9.40
2019-03-04T22:18:38.847Z,9.40
2019-03-04T22:21:16.805Z,9.30
2019-03-04T22:23:47.394Z,9.30
2019-03-04T22:26:20.752Z,9.30
2019-03-04T22:28:54.193Z,9.30
2019-03-04T22:31:27.828Z,9.30
2019-03-04T22:34:01.026Z,9.30
2019-03-04T22:36:34.242Z,9.20
2019-03-04T22:39:08.706Z,9.10
2019-03-04T22:41:42.095Z,9.00
2019-03-04T22:44:15.133Z,9.00
2019-03-04T22:46:48.140Z,9.00
2019-03-04T22:49:21.298Z,9.00
2019-03-04T22:51:54.745Z,9.10
2019-03-04T22:54:27.803Z,9.00
2019-03-04T22:57:00.903Z,8.90
2019-03-04T22:59:33.922Z,8.90
2019-03-04T23:02:07.991Z,8.80
2019-03-04T23:05:06.715Z,8.80
2019-03-04T23:07:46.621Z,8.80
2019-03-04T23:10:46.010Z,8.90
2019-03-04T23:13:54.957Z,9.10
2019-03-04T23:16:32.069Z,9.20
2019-03-04T23:19:05.630Z,9.30
2019-03-04T23:21:39.087Z,9.30
2019-03-04T23:24:12.235Z,9.30
2019-03-04T23:26:45.689Z,9.20
2019-03-04T23:29:18.835Z,9.10
2019-03-04T23:31:51.900Z,8.90
2019-03-04T23:34:25.304Z,8.80
2019-03-04T23:36:58.434Z,8.80
2019-03-04T23:39:31.405Z,8.70
2019-03-04T23:42:04.500Z,8.60
2019-03-04T23:44:37.721Z,8.60
2019-03-04T23:47:10.833Z,8.50
2019-03-04T23:49:45.281Z,8.40
2019-03-04T23:52:18.020Z,8.40
2019-03-04T23:54:51.077Z,8.40
2019-03-04T23:57:24.308Z,8.40
2019-03-04T23:59:57.013Z,8.40
